Time;durP1;ratioP1;P1;durP2;ratioP2;P2;SDS_P1;SDS_P2;PMS_P1;PMS_P2;Temp;Humidity;BMP_temperature;BMP_pressure;BME280_temperature;BME280_humidity;BME280_pressure;Samples;Min_cycle;Max_cycle;Signal;HPM_P1;HPM_P2
2021/05/11 00:01:28;;;;;;;5.25;1.88;;;17.70;70.80;;;;;;5015661;28;20056;-73
2021/05/11 00:03:55;;;;;;;5.53;1.55;;;17.60;71.00;;;;;;5010352;28;20041;-72
2021/05/11 00:06:21;;;;;;;3.47;1.70;;;17.50;70.90;;;;;;5031218;28;20045;-72
2021/05/11 00:08:48;;;;;;;4.50;1.90;;;17.40;71.20;;;;;;5024035;28;20400;-72
2021/05/11 00:11:14;;;;;;;5.65;2.00;;;17.30;71.70;;;;;;5005124;28;20052;-72
2021/05/11 00:13:41;;;;;;;3.53;2.00;;;17.20;72.10;;;;;;4985869;28;20061;-72
2021/05/11 00:16:07;;;;;;;3.10;1.65;;;17.10;72.60;;;;;;5030129;28;20516;-72
2021/05/11 00:18:35;;;;;;;4.03;1.60;;;17.00;72.90;;;;;;5004847;28;20053;-72
2021/05/11 00:21:02;;;;;;;5.75;2.20;;;16.90;73.30;;;;;;5021367;28;20041;-72
2021/05/11 00:23:29;;;;;;;5.10;1.92;;;16.90;73.60;;;;;;5032209;28;20571;-72
2021/05/11 00:25:56;;;;;;;6.53;2.30;;;16.80;74.20;;;;;;5014355;28;20053;-72
2021/05/11 00:28:23;;;;;;;3.83;1.92;;;16.80;74.20;;;;;;4994460;28;20050;-72
2021/05/11 00:30:50;;;;;;;4.40;1.83;;;16.80;74.40;;;;;;5019365;28;20440;-72
2021/05/11 00:33:17;;;;;;;5.93;1.92;;;16.70;74.40;;;;;;5040248;28;20550;-72
2021/05/11 00:35:43;;;;;;;4.55;2.47;;;16.70;75.40;;;;;;5003936;28;20063;-72
2021/05/11 00:38:10;;;;;;;7.30;2.00;;;16.70;75.30;;;;;;5011957;28;20124;-72
2021/05/11 00:40:36;;;;;;;4.05;2.08;;;16.60;75.40;;;;;;5013440;28;20053;-72
2021/05/11 00:43:03;;;;;;;4.95;2.15;;;16.60;75.50;;;;;;5014693;28;20064;-72
2021/05/11 00:45:29;;;;;;;4.75;1.77;;;16.60;75.40;;;;;;5017971;28;20092;-72
2021/05/11 00:47:56;;;;;;;5.03;1.75;;;16.50;75.50;;;;;;5011934;28;20045;-72
2021/05/11 00:50:23;;;;;;;3.33;1.95;;;16.40;75.20;;;;;;5007811;28;20087;-72
2021/05/11 00:52:50;;;;;;;4.47;1.92;;;16.40;76.40;;;;;;5015933;28;20053;-72
2021/05/11 00:55:17;;;;;;;6.68;2.65;;;16.40;76.40;;;;;;5003537;28;20497;-72
2021/05/11 00:57:45;;;;;;;3.83;2.53;;;16.30;76.70;;;;;;5000953;28;20053;-72
2021/05/11 01:00:12;;;;;;;5.38;2.28;;;16.30;77.10;;;;;;5013973;28;20108;-72
2021/05/11 01:02:38;;;;;;;5.30;2.83;;;16.30;76.90;;;;;;5009071;28;20042;-72
2021/05/11 01:05:07;;;;;;;4.47;1.77;;;16.20;77.20;;;;;;5004359;28;20057;-72
2021/05/11 01:07:34;;;;;;;3.05;1.73;;;16.10;77.50;;;;;;5014073;28;20559;-72
2021/05/11 01:10:01;;;;;;;6.38;2.00;;;16.10;77.90;;;;;;5013835;28;20046;-72
2021/05/11 01:12:27;;;;;;;3.97;1.95;;;16.10;78.60;;;;;;5014093;28;20137;-72
2021/05/11 01:14:54;;;;;;;6.00;2.20;;;16.10;77.90;;;;;;5000070;28;20504;-72
2021/05/11 01:17:28;;;;;;;5.72;2.05;;;16.10;78.10;;;;;;4996736;28;20136;-72
2021/05/11 01:20:01;;;;;;;3.72;2.25;;;16.00;78.30;;;;;;5011787;28;20048;-72
2021/05/11 01:46:39;;;;;;;4.70;2.50;;;15.60;81.10;;;;;;5030313;28;20049;-72
2021/05/11 01:52:15;;;;;;;4.53;3.00;;;15.60;81.90;;;;;;5032553;28;20064;-72
2021/05/11 01:54:57;;;;;;;5.28;2.50;;;15.50;82.40;;;;;;5044330;28;20419;-72
2021/05/11 02:24:36;;;;;;;4.40;2.35;;;15.20;84.00;;;;;;5032055;28;20049;-72
2021/05/11 02:27:02;;;;;;;6.30;2.70;;;15.20;84.30;;;;;;5025363;28;20046;-72
2021/05/11 02:29:29;;;;;;;4.10;2.25;;;15.10;84.50;;;;;;5023567;28;20045;-71
2021/05/11 02:31:55;;;;;;;6.47;2.58;;;15.10;84.80;;;;;;5032438;28;20059;-72
2021/05/11 02:34:22;;;;;;;4.93;2.58;;;15.10;84.90;;;;;;5032875;28;20048;-72
2021/05/11 02:36:49;;;;;;;7.53;2.90;;;15.10;85.60;;;;;;5016077;28;20057;-72
2021/05/11 02:39:16;;;;;;;4.55;2.55;;;15.00;85.20;;;;;;5010848;28;20080;-72
2021/05/11 02:41:44;;;;;;;5.80;2.40;;;15.10;85.40;;;;;;5048031;28;20052;-72
2021/05/11 02:44:14;;;;;;;4.43;2.58;;;15.10;85.50;;;;;;5020979;28;20045;-72
2021/05/11 02:46:40;;;;;;;4.47;2.53;;;15.10;85.30;;;;;;5017441;28;20049;-72
2021/05/11 02:49:08;;;;;;;4.32;2.55;;;15.00;85.70;;;;;;5047990;28;20527;-72
2021/05/11 02:51:35;;;;;;;3.17;2.33;;;15.10;85.30;;;;;;5017837;28;20084;-72
2021/05/11 02:54:02;;;;;;;4.90;2.33;;;15.10;85.40;;;;;;5045066;28;20052;-72
2021/05/11 02:56:28;;;;;;;3.78;2.60;;;15.30;84.90;;;;;;5015339;28;20045;-72
2021/05/11 02:58:55;;;;;;;3.47;2.00;;;15.20;84.50;;;;;;5050580;28;20436;-72
2021/05/11 03:01:21;;;;;;;3.25;2.05;;;15.10;84.80;;;;;;5015658;28;20049;-72
2021/05/11 03:03:48;;;;;;;5.22;2.45;;;15.20;84.80;;;;;;5033455;28;20140;-72
2021/05/11 03:06:14;;;;;;;4.72;2.42;;;15.10;85.00;;;;;;5043814;28;20136;-72
2021/05/11 03:08:43;;;;;;;5.47;1.85;;;15.10;85.30;;;;;;5015045;28;20053;-72
2021/05/11 03:11:10;;;;;;;6.28;2.72;;;15.10;85.00;;;;;;5032306;28;20053;-72
2021/05/11 03:13:37;;;;;;;3.03;1.98;;;15.10;84.60;;;;;;5019191;28;20053;-72
2021/05/11 03:16:04;;;;;;;5.07;1.95;;;15.20;84.20;;;;;;5031951;28;20053;-72
2021/05/11 03:18:31;;;;;;;4.65;1.98;;;15.30;83.80;;;;;;5031955;28;20141;-72
2021/05/11 03:20:57;;;;;;;6.72;2.50;;;15.30;84.00;;;;;;5007261;28;20513;-72
2021/05/11 03:23:24;;;;;;;3.17;1.80;;;15.10;84.20;;;;;;5012541;28;20046;-72
2021/05/11 03:25:51;;;;;;;4.32;1.85;;;15.10;84.70;;;;;;5011776;28;20041;-72
2021/05/11 03:28:18;;;;;;;8.27;2.38;;;15.00;84.80;;;;;;5028392;28;20049;-72
2021/05/11 03:30:44;;;;;;;4.60;2.50;;;15.00;84.90;;;;;;5029713;28;20045;-72
2021/05/11 03:33:11;;;;;;;3.33;1.83;;;15.00;85.00;;;;;;5010306;28;20497;-72
2021/05/11 03:35:37;;;;;;;6.65;3.15;;;14.90;85.10;;;;;;5010793;28;20073;-72
2021/05/11 03:38:06;;;;;;;3.72;1.90;;;15.00;85.20;;;;;;4993184;28;20072;-72
2021/05/11 03:40:33;;;;;;;6.03;2.47;;;15.00;85.40;;;;;;5029561;28;20037;-71
2021/05/11 03:43:04;;;;;;;4.55;2.17;;;15.00;85.10;;;;;;5011640;28;20049;-72
2021/05/11 03:45:36;;;;;;;3.95;2.38;;;15.00;85.30;;;;;;5015354;28;20043;-72
2021/05/11 03:48:06;;;;;;;2.80;1.95;;;15.00;85.40;;;;;;5032227;28;20512;-72
2021/05/11 03:50:34;;;;;;;3.85;2.05;;;15.00;85.00;;;;;;5027389;28;20140;-72
2021/05/11 03:53:01;;;;;;;3.33;2.30;;;15.10;84.70;;;;;;5033216;28;20056;-72
2021/05/11 03:55:29;;;;;;;5.07;2.20;;;15.10;84.80;;;;;;5039413;28;20047;-72
2021/05/11 03:57:56;;;;;;;6.28;2.00;;;15.10;85.20;;;;;;5004643;28;20051;-73
2021/05/11 04:00:23;;;;;;;4.30;2.17;;;15.10;84.90;;;;;;5032251;28;20496;-72
2021/05/11 04:02:50;;;;;;;4.50;2.40;;;15.10;84.60;;;;;;5014662;28;20053;-72
2021/05/11 04:05:20;;;;;;;4.15;2.53;;;15.30;84.30;;;;;;5030660;28;20041;-72
2021/05/11 04:07:50;;;;;;;4.78;2.50;;;15.40;83.50;;;;;;4999219;28;20463;-72
2021/05/11 04:10:36;;;;;;;5.60;2.88;;;15.30;83.80;;;;;;5004713;28;20449;-72
2021/05/11 04:18:24;;;;;;;5.13;2.80;;;15.60;82.30;;;;;;5025800;28;20053;-72
2021/05/11 04:20:51;;;;;;;3.67;2.42;;;15.70;82.10;;;;;;5025352;28;20056;-71
2021/05/11 04:23:19;;;;;;;5.80;2.50;;;15.60;82.40;;;;;;5034717;28;20049;-72
2021/05/11 04:25:46;;;;;;;4.95;2.90;;;15.60;81.70;;;;;;5013163;28;20052;-72
2021/05/11 04:28:13;;;;;;;4.20;2.53;;;15.70;81.90;;;;;;4997188;28;20401;-72
2021/05/11 04:30:40;;;;;;;6.65;2.78;;;15.70;82.00;;;;;;5022225;28;20049;-72
2021/05/11 04:33:08;;;;;;;4.63;2.40;;;15.60;81.60;;;;;;5022771;28;20514;-72
2021/05/11 04:35:35;;;;;;;4.22;2.00;;;15.70;81.40;;;;;;5012492;28;20045;-72
2021/05/11 04:38:02;;;;;;;4.50;1.75;;;15.70;81.90;;;;;;5027860;28;20041;-72
2021/05/11 04:40:29;;;;;;;3.45;1.80;;;15.80;81.30;;;;;;5006358;28;20575;-71
2021/05/11 04:42:57;;;;;;;3.42;2.03;;;15.80;81.10;;;;;;5013356;28;21894;-72
2021/05/11 04:45:27;;;;;;;4.15;2.38;;;15.90;81.50;;;;;;5014033;28;20099;-73
2021/05/11 04:47:54;;;;;;;5.47;2.25;;;15.90;81.00;;;;;;5028364;28;20053;-72
2021/05/11 04:50:23;;;;;;;5.03;1.85;;;15.90;80.70;;;;;;5015787;28;20588;-72
2021/05/11 04:52:51;;;;;;;3.47;1.67;;;16.00;79.90;;;;;;4997653;28;20046;-72
2021/05/11 04:55:20;;;;;;;3.80;2.03;;;16.10;80.70;;;;;;4994692;28;20052;-72
2021/05/11 04:57:47;;;;;;;4.68;2.17;;;16.10;81.00;;;;;;5011372;28;20053;-72
2021/05/11 05:00:16;;;;;;;3.47;2.15;;;16.20;80.90;;;;;;4993924;28;20052;-72
2021/05/11 05:02:48;;;;;;;6.93;2.08;;;16.30;80.40;;;;;;5010767;28;20037;-72
2021/05/11 05:05:16;;;;;;;5.35;2.17;;;16.40;79.30;;;;;;5005742;28;20177;-72
2021/05/11 05:07:43;;;;;;;3.72;1.58;;;16.40;79.20;;;;;;4994539;28;20157;-72
2021/05/11 05:10:12;;;;;;;3.28;1.77;;;16.40;79.50;;;;;;5014139;28;20045;-72
2021/05/11 05:12:45;;;;;;;1.93;1.23;;;16.50;78.30;;;;;;5014408;28;20385;-72
2021/05/11 05:15:13;;;;;;;5.93;1.80;;;16.70;77.30;;;;;;5011988;28;20416;-72
2021/05/11 05:17:41;;;;;;;3.50;1.83;;;16.70;76.90;;;;;;5012329;28;20052;-72
2021/05/11 05:20:09;;;;;;;4.43;2.03;;;16.80;76.60;;;;;;4998892;28;20183;-72
2021/05/11 05:22:37;;;;;;;4.88;1.80;;;16.80;76.10;;;;;;5013529;28;20144;-72
2021/05/11 05:25:12;;;;;;;4.07;1.52;;;16.90;74.80;;;;;;5014208;28;20396;-72
2021/05/11 05:27:56;;;;;;;4.38;1.42;;;16.90;74.70;;;;;;5006699;28;20498;-72
2021/05/11 05:30:24;;;;;;;3.22;1.17;;;16.90;73.20;;;;;;5027602;28;20052;-72
2021/05/11 05:32:59;;;;;;;1.90;1.25;;;17.00;72.60;;;;;;5031682;28;20046;-72
2021/05/11 05:35:26;;;;;;;1.73;1.00;;;17.10;72.60;;;;;;4996181;28;20501;-72
2021/05/11 05:37:53;;;;;;;2.53;1.02;;;17.20;72.60;;;;;;5009389;28;20128;-72
2021/05/11 05:40:20;;;;;;;2.35;1.30;;;17.20;71.70;;;;;;5014841;28;20068;-72
2021/05/11 05:42:47;;;;;;;4.40;1.40;;;17.20;70.60;;;;;;5012487;28;20361;-72
2021/05/11 05:45:15;;;;;;;5.40;1.17;;;17.30;71.40;;;;;;5029906;28;20049;-72
2021/05/11 05:47:51;;;;;;;2.97;1.38;;;17.30;70.60;;;;;;5015064;28;20045;-72
2021/05/11 05:50:26;;;;;;;2.40;0.90;;;17.40;70.80;;;;;;5014282;28;20115;-72
2021/05/11 05:53:03;;;;;;;2.35;1.17;;;17.50;69.70;;;;;;5013798;28;20038;-72
2021/05/11 05:55:30;;;;;;;1.92;1.02;;;17.60;69.70;;;;;;5030512;28;20049;-72
2021/05/11 05:57:57;;;;;;;1.70;1.08;;;17.60;69.90;;;;;;5010507;28;20065;-71
2021/05/11 06:00:25;;;;;;;2.70;0.80;;;17.70;69.90;;;;;;5011257;28;20136;-72
2021/05/11 06:02:54;;;;;;;2.58;1.02;;;17.70;69.90;;;;;;5030322;28;20669;-72
2021/05/11 06:05:23;;;;;;;3.75;0.90;;;17.80;69.80;;;;;;5028034;28;20054;-71
2021/05/11 06:07:51;;;;;;;3.03;0.90;;;17.80;69.50;;;;;;5002954;28;20048;-72
2021/05/11 06:10:18;;;;;;;2.75;0.80;;;17.90;68.40;;;;;;5006674;28;20061;-72
2021/05/11 06:12:51;;;;;;;2.38;0.70;;;18.00;68.20;;;;;;4984329;28;20365;-72
2021/05/11 06:18:05;;;;;;;3.13;0.88;;;18.10;68.00;;;;;;5022956;28;20520;-71
2021/05/11 06:20:32;;;;;;;2.78;1.15;;;18.20;68.70;;;;;;5038206;28;20053;-72
2021/05/11 06:23:00;;;;;;;1.98;0.70;;;18.20;67.10;;;;;;5022082;28;20045;-72
2021/05/11 06:25:27;;;;;;;2.70;0.95;;;18.30;67.00;;;;;;5034561;28;20056;-72
2021/05/11 06:27:58;;;;;;;3.17;0.77;;;18.40;66.70;;;;;;5030698;28;20060;-72
2021/05/11 06:30:26;;;;;;;2.38;0.63;;;18.40;66.40;;;;;;5032096;28;20057;-72
2021/05/11 06:32:54;;;;;;;2.42;0.90;;;18.50;65.70;;;;;;5026710;28;20475;-72
2021/05/11 06:35:24;;;;;;;1.80;0.80;;;18.60;66.30;;;;;;5013495;28;20128;-72
2021/05/11 06:37:59;;;;;;;2.47;0.90;;;18.60;66.50;;;;;;5029259;28;20045;-72
2021/05/11 06:40:29;;;;;;;1.98;1.20;;;18.70;65.70;;;;;;5036480;28;20071;-72
2021/05/11 06:42:57;;;;;;;2.03;0.70;;;18.80;65.50;;;;;;5013808;28;20528;-72
2021/05/11 06:55:31;;;;;;;2.05;0.50;;;19.10;65.90;;;;;;5037690;28;20053;-72
2021/05/11 06:58:03;;;;;;;1.50;0.70;;;19.20;64.80;;;;;;5031379;28;20053;-72
2021/05/11 07:00:33;;;;;;;1.30;0.60;;;19.30;65.20;;;;;;5027909;28;20139;-72
2021/05/11 07:03:01;;;;;;;1.73;0.82;;;19.40;63.50;;;;;;5030399;28;20037;-72
2021/05/11 07:05:31;;;;;;;2.22;0.93;;;19.50;63.30;;;;;;5030160;28;20516;-72
2021/05/11 07:08:15;;;;;;;1.35;0.80;;;19.50;63.20;;;;;;5030772;28;20052;-72
2021/05/11 07:10:48;;;;;;;2.67;0.73;;;19.50;62.90;;;;;;5027847;28;20057;-72
2021/05/11 07:13:15;;;;;;;4.40;1.00;;;19.60;63.20;;;;;;5014588;28;20460;-72
2021/05/11 07:15:44;;;;;;;1.15;0.60;;;19.60;63.20;;;;;;5047910;28;20045;-72
2021/05/11 07:18:21;;;;;;;1.80;0.77;;;19.70;63.30;;;;;;5030030;28;20041;-72
2021/05/11 07:20:50;;;;;;;0.90;0.50;;;19.70;63.60;;;;;;5034327;28;20056;-72
2021/05/11 07:23:21;;;;;;;1.55;0.75;;;19.70;63.00;;;;;;5015378;28;20045;-72
2021/05/11 07:25:57;;;;;;;2.70;0.47;;;19.70;63.70;;;;;;5051654;28;20520;-72
2021/05/11 07:31:06;;;;;;;1.98;0.50;;;19.80;63.50;;;;;;5051835;28;20060;-72
2021/05/11 07:33:38;;;;;;;2.25;0.73;;;19.90;64.00;;;;;;5017179;28;20040;-72
2021/05/11 07:36:05;;;;;;;2.95;0.82;;;20.00;62.60;;;;;;5032690;28;20049;-72
2021/05/11 07:38:33;;;;;;;4.35;1.30;;;20.20;61.90;;;;;;5026556;28;20059;-72
2021/05/11 07:41:01;;;;;;;5.13;0.60;;;20.20;62.30;;;;;;5040582;28;20659;-72
2021/05/11 07:43:28;;;;;;;1.33;0.68;;;20.30;61.90;;;;;;5037458;28;20045;-72
2021/05/11 07:46:17;;;;;;;1.48;0.57;;;20.40;61.10;;;;;;5048900;28;20664;-72
2021/05/11 08:09:45;;;;;;;1.35;0.60;;;20.90;58.70;;;;;;4955648;28;20135;-72
2021/05/11 08:14:27;;;;;;;3.05;0.68;;;21.20;57.60;;;;;;4962434;28;20490;-72
2021/05/11 08:16:29;;;;;;;2.28;0.60;;;21.30;58.60;;;;;;4953812;28;20058;-72
2021/05/11 08:19:12;;;;;;;1.05;0.65;;;21.40;58.40;;;;;;4962159;28;20087;-72
2021/05/11 08:22:00;;;;;;;2.05;0.50;;;21.40;57.80;;;;;;4949830;28;20055;-72
2021/05/11 08:29:55;;;;;;;1.10;0.90;;;21.60;56.10;;;;;;4952948;28;20055;-72
2021/05/11 08:32:22;;;;;;;2.08;0.90;;;21.70;57.60;;;;;;4951117;28;20055;-72
2021/05/11 08:34:50;;;;;;;1.35;0.55;;;21.80;55.90;;;;;;4949718;28;20423;-72
2021/05/11 08:37:17;;;;;;;1.55;0.88;;;21.80;57.20;;;;;;5029320;28;20048;-73
2021/05/11 08:39:49;;;;;;;1.45;0.60;;;21.90;56.10;;;;;;5049424;28;20076;-73
2021/05/11 08:42:16;;;;;;;;;;;22.10;55.80;;;;;;5032524;28;20055;-72
2021/05/11 08:44:43;;;;;;;2.75;1.20;;;22.20;56.00;;;;;;5033325;28;19971;-73
2021/05/11 08:47:11;;;;;;;3.97;1.10;;;22.30;56.40;;;;;;5016062;28;20048;-73
2021/05/11 08:49:40;;;;;;;2.58;0.70;;;22.30;55.30;;;;;;5030284;28;21951;-73
2021/05/11 08:55:02;;;;;;;1.83;0.80;;;22.40;54.90;;;;;;5050717;28;20064;-73
2021/05/11 09:06:21;;;;;;;1.70;1.15;;;22.60;54.50;;;;;;5044318;28;20053;-72
2021/05/11 09:25:31;;;;;;;2.95;0.70;;;23.50;52.10;;;;;;5046735;28;20791;-72
2021/05/11 09:28:18;;;;;;;1.90;0.90;;;23.50;52.60;;;;;;5045933;28;20408;-72
2021/05/11 09:33:33;;;;;;;2.03;0.70;;;23.70;51.90;;;;;;5042650;28;20060;-67
2021/05/11 10:36:32;;;;;;;3.80;0.70;;;26.00;45.30;;;;;;4934057;29;20098;-72
2021/05/11 10:37:16;;;;;;;2.80;0.60;;;26.00;43.40;;;;;;4936374;28;20369;-73
2021/05/11 10:39:54;;;;;;;2.33;0.80;;;26.00;45.40;;;;;;4932120;29;20054;-73
2021/05/11 10:42:41;;;;;;;1.67;0.60;;;26.20;45.10;;;;;;4950055;28;20061;-74
2021/05/11 10:48:17;;;;;;;1.00;0.50;;;26.30;45.30;;;;;;4937716;29;20142;-74
2021/05/11 10:50:52;;;;;;;1.33;0.70;;;26.40;45.20;;;;;;5022992;28;20049;-73
2021/05/11 10:53:38;;;;;;;1.55;0.80;;;26.50;44.90;;;;;;5022584;28;20057;-72
2021/05/11 10:56:26;;;;;;;4.88;0.93;;;26.60;44.00;;;;;;5030699;28;20049;-72
2021/05/11 10:59:17;;;;;;;1.25;0.57;;;26.80;42.40;;;;;;5016224;28;20555;-72
2021/05/11 11:01:48;;;;;;;3.17;1.07;;;26.90;42.90;;;;;;5029693;28;20045;-71
2021/05/11 11:04:18;;;;;;;3.85;0.60;;;27.10;42.20;;;;;;5015653;28;20054;-73
2021/05/11 11:07:00;;;;;;;1.45;0.70;;;27.10;41.30;;;;;;5026444;28;20046;-73
2021/05/11 11:09:39;;;;;;;1.23;0.50;;;27.20;41.60;;;;;;5025228;28;20053;-72
2021/05/11 11:12:08;;;;;;;3.33;0.98;;;27.30;42.00;;;;;;5020747;28;20049;-72
2021/05/11 11:14:44;;;;;;;1.55;0.65;;;27.30;40.70;;;;;;5007363;28;20056;-71
2021/05/11 11:17:13;;;;;;;1.50;0.57;;;27.40;41.40;;;;;;5024093;28;20123;-72
2021/05/11 11:19:41;;;;;;;1.00;0.40;;;27.50;41.70;;;;;;5012742;28;20438;-73
2021/05/11 11:24:56;;;;;;;3.22;0.77;;;28.00;41.30;;;;;;5029602;28;20107;-71
2021/05/11 11:27:28;;;;;;;1.65;0.45;;;28.30;41.10;;;;;;4995064;28;20107;-73
2021/05/11 11:30:06;;;;;;;1.00;0.40;;;28.50;40.50;;;;;;4993233;28;20046;-73
2021/05/11 11:32:34;;;;;;;1.70;0.47;;;28.70;39.70;;;;;;4993548;28;20053;-73
2021/05/11 11:35:05;;;;;;;2.53;0.70;;;28.90;39.60;;;;;;4992790;28;20063;-73
2021/05/11 11:37:32;;;;;;;2.78;0.57;;;28.90;38.70;;;;;;5013129;28;20440;-73
2021/05/11 11:40:18;;;;;;;1.88;0.73;;;29.00;38.90;;;;;;5028963;28;20097;-73
2021/05/11 11:42:47;;;;;;;1.00;0.47;;;29.00;40.20;;;;;;5006078;28;20045;-75
2021/05/11 11:45:26;;;;;;;1.92;0.80;;;29.10;38.80;;;;;;5020892;28;20361;-71
2021/05/11 11:48:03;;;;;;;1.88;0.80;;;29.20;39.60;;;;;;5021085;28;20057;-71
2021/05/11 11:50:36;;;;;;;3.47;0.65;;;29.50;39.20;;;;;;5007259;28;20488;-73
2021/05/11 11:53:12;;;;;;;2.08;0.70;;;29.70;38.30;;;;;;5006173;28;20050;-70
2021/05/11 11:58:26;;;;;;;1.70;0.40;;;30.00;37.00;;;;;;5018753;28;20076;-70
2021/05/11 12:00:53;;;;;;;3.13;0.68;;;30.40;37.50;;;;;;5008524;28;20064;-73
2021/05/11 12:03:24;;;;;;;1.85;0.90;;;31.20;36.20;;;;;;4993064;28;20045;-73
2021/05/11 12:05:53;;;;;;;1.38;0.75;;;32.20;36.00;;;;;;4993066;28;20045;-71
2021/05/11 12:08:24;;;;;;;1.30;0.70;;;33.00;34.00;;;;;;5012959;28;20037;-73
2021/05/11 12:10:53;;;;;;;3.10;0.70;;;34.00;33.70;;;;;;5009133;28;20049;-73
2021/05/11 12:13:23;;;;;;;2.60;0.70;;;35.10;32.90;;;;;;5009625;28;20081;-74
2021/05/11 12:16:10;;;;;;;1.13;0.43;;;35.70;30.70;;;;;;4991884;28;20057;-73
2021/05/11 12:18:43;;;;;;;4.28;0.65;;;36.30;30.30;;;;;;5027739;28;20080;-72
2021/05/11 12:21:10;;;;;;;1.77;0.75;;;36.50;30.00;;;;;;5005929;28;20723;-73
2021/05/11 12:23:37;;;;;;;2.70;1.08;;;37.20;29.70;;;;;;5027617;28;20057;-71
2021/05/11 12:26:06;;;;;;;1.63;0.90;;;37.30;29.70;;;;;;5024283;28;20049;-72
2021/05/11 12:28:43;;;;;;;1.83;0.43;;;37.30;29.20;;;;;;5045581;28;20095;-71
2021/05/11 12:31:11;;;;;;;1.92;0.80;;;37.50;29.30;;;;;;5022144;28;20124;-73
2021/05/11 12:33:43;;;;;;;2.15;0.70;;;37.40;28.70;;;;;;5046520;28;20053;-73
2021/05/11 12:36:29;;;;;;;2.42;0.80;;;37.20;28.90;;;;;;5030057;28;20424;-73
2021/05/11 12:42:24;;;;;;;2.40;1.15;;;37.70;28.90;;;;;;4962195;28;20054;-72
2021/05/11 12:45:04;;;;;;;2.03;0.68;;;38.00;29.10;;;;;;4965874;28;20117;-73
2021/05/11 12:47:47;;;;;;;1.85;0.52;;;37.80;28.80;;;;;;4965747;28;20051;-73
2021/05/11 12:50:21;;;;;;;3.28;0.90;;;38.00;28.60;;;;;;4951004;28;20086;-73
2021/05/11 12:52:55;;;;;;;0.90;0.57;;;37.60;28.80;;;;;;4948922;28;20054;-72
2021/05/11 12:56:28;;;;;;;4.15;1.10;;;37.20;28.20;;;;;;4949378;28;20477;-73
2021/05/11 12:58:38;;;;;;;0.82;0.40;;;36.50;29.30;;;;;;4952340;28;20110;-73
2021/05/11 13:26:07;;;;;;;5.20;0.60;;;36.00;29.20;;;;;;4959279;28;20504;-72
2021/05/11 13:28:58;;;;;;;1.60;0.70;;;36.20;29.60;;;;;;4960060;28;20051;-72
2021/05/11 13:36:35;;;;;;;1.83;0.70;;;36.60;29.40;;;;;;4966560;28;20056;-72
2021/05/11 13:39:04;;;;;;;5.47;0.95;;;36.30;29.40;;;;;;4955828;28;20059;-73
2021/05/11 13:41:32;;;;;;;1.30;0.55;;;35.30;29.50;;;;;;4979374;28;20061;-72
2021/05/11 13:44:00;;;;;;;1.23;0.50;;;34.70;30.00;;;;;;5047987;28;20502;-73
2021/05/11 13:46:27;;;;;;;2.33;0.65;;;35.20;30.00;;;;;;5013345;28;20045;-72
2021/05/11 13:48:54;;;;;;;1.42;0.60;;;35.70;29.80;;;;;;5030256;28;20037;-73
2021/05/11 13:51:21;;;;;;;3.42;0.60;;;35.90;30.00;;;;;;5016676;28;20056;-73
2021/05/11 13:53:54;;;;;;;1.83;0.40;;;36.20;30.00;;;;;;5024170;28;20053;-72
2021/05/11 14:04:20;;;;;;;1.38;0.40;;;37.00;29.30;;;;;;5049712;28;20064;-73
2021/05/11 14:06:48;;;;;;;1.00;0.50;;;37.10;29.00;;;;;;5051678;28;20044;-73
2021/05/11 14:09:17;;;;;;;2.63;0.45;;;37.20;29.10;;;;;;5020045;28;20045;-73
2021/05/11 14:11:44;;;;;;;2.88;0.43;;;37.60;29.10;;;;;;5034424;28;20048;-73
2021/05/11 14:14:12;;;;;;;3.10;0.88;;;37.60;29.10;;;;;;5035407;28;20060;-73
2021/05/11 14:16:40;;;;;;;2.05;0.63;;;37.80;29.00;;;;;;5016191;28;20088;-73
2021/05/11 14:19:18;;;;;;;2.28;0.47;;;38.00;29.00;;;;;;5051358;28;20081;-72
2021/05/11 14:21:46;;;;;;;0.70;0.47;;;38.10;28.90;;;;;;5015649;28;20045;-73
2021/05/11 14:24:14;;;;;;;1.67;0.30;;;38.60;28.30;;;;;;5025656;28;20053;-70
2021/05/11 14:26:41;;;;;;;2.05;0.40;;;38.30;28.10;;;;;;5046572;28;20443;-72
2021/05/11 14:29:08;;;;;;;0.90;0.35;;;38.40;28.30;;;;;;5024550;28;20059;-73
2021/05/11 14:31:35;;;;;;;1.88;0.50;;;38.70;28.40;;;;;;5040420;28;20060;-72
2021/05/11 14:34:05;;;;;;;1.10;0.60;;;38.90;27.90;;;;;;5039924;28;20527;-72
2021/05/11 14:36:32;;;;;;;1.25;0.30;;;39.00;27.90;;;;;;5026708;28;20057;-72
2021/05/11 14:38:59;;;;;;;0.70;0.43;;;38.90;28.00;;;;;;5014538;28;20696;-72
2021/05/11 14:41:26;;;;;;;3.65;0.82;;;39.50;28.00;;;;;;5013908;28;20088;-72
2021/05/11 14:43:53;;;;;;;2.58;0.40;;;41.90;27.20;;;;;;5047593;28;20048;-73
2021/05/11 14:46:21;;;;;;;3.33;0.40;;;45.90;26.00;;;;;;5026628;28;20040;-73
2021/05/11 14:48:48;;;;;;;2.05;0.40;;;46.70;25.40;;;;;;5029948;28;20125;-72
2021/05/11 14:51:15;;;;;;;0.90;0.43;;;48.90;24.90;;;;;;5027209;28;20726;-73
2021/05/11 14:53:42;;;;;;;1.85;0.40;;;50.70;24.60;;;;;;5042508;28;20099;-74
2021/05/11 14:56:11;;;;;;;2.13;0.38;;;51.30;24.10;;;;;;5046630;28;20053;-73
2021/05/11 14:58:39;;;;;;;2.08;0.75;;;52.10;24.60;;;;;;5023457;28;20731;-73
2021/05/11 15:01:06;;;;;;;2.45;0.40;;;53.10;23.90;;;;;;5047017;28;20523;-74
2021/05/11 15:03:33;;;;;;;0.98;0.40;;;53.60;23.40;;;;;;5048685;28;20464;-73
2021/05/11 15:06:15;;;;;;;2.85;0.35;;;52.80;23.10;;;;;;5025839;28;20199;-74
2021/05/11 15:08:42;;;;;;;1.38;0.40;;;53.60;23.20;;;;;;5018385;28;20053;-73
2021/05/11 15:11:10;;;;;;;1.60;0.50;;;54.00;22.60;;;;;;5032939;28;20132;-73
2021/05/11 15:13:39;;;;;;;1.73;0.52;;;54.40;22.60;;;;;;5032765;28;20044;-73
2021/05/11 15:16:09;;;;;;;1.50;0.45;;;54.10;22.50;;;;;;5030070;28;20045;-74
2021/05/11 15:18:37;;;;;;;2.10;0.77;;;53.70;22.50;;;;;;5029315;28;20072;-74
2021/05/11 15:21:04;;;;;;;1.52;0.60;;;54.90;22.40;;;;;;5027217;28;20116;-74
2021/05/11 15:23:32;;;;;;;0.95;0.40;;;53.90;21.90;;;;;;5029154;28;20076;-73
2021/05/11 15:25:59;;;;;;;2.55;1.02;;;53.20;22.10;;;;;;5013522;28;20037;-73
2021/05/11 15:28:26;;;;;;;0.95;0.40;;;54.10;22.60;;;;;;5047471;28;20041;-74
2021/05/11 15:30:57;;;;;;;1.90;0.50;;;54.40;22.40;;;;;;5030056;28;20092;-74
2021/05/11 15:33:25;;;;;;;1.23;0.50;;;53.50;22.10;;;;;;5047280;28;20073;-74
2021/05/11 15:35:53;;;;;;;2.22;0.40;;;53.20;22.00;;;;;;5013933;28;20115;-74
2021/05/11 15:38:20;;;;;;;1.67;0.68;;;53.90;22.20;;;;;;5017178;28;20049;-74
2021/05/11 15:40:47;;;;;;;0.90;0.38;;;53.70;21.90;;;;;;5048151;28;20045;-74
2021/05/11 15:43:15;;;;;;;0.63;0.30;;;53.70;22.10;;;;;;5033583;28;20045;-74
2021/05/11 15:45:42;;;;;;;1.48;0.40;;;53.80;22.10;;;;;;5049305;28;20049;-74
2021/05/11 15:48:09;;;;;;;4.35;0.40;;;53.20;22.30;;;;;;5048852;28;20049;-74
2021/05/11 15:50:39;;;;;;;3.22;0.50;;;51.70;21.80;;;;;;5017658;28;20049;-74
2021/05/11 15:53:09;;;;;;;2.72;0.38;;;51.70;22.40;;;;;;5017076;28;20532;-74
2021/05/11 15:55:39;;;;;;;2.10;0.50;;;51.40;22.40;;;;;;5029702;28;20131;-74
2021/05/11 15:58:08;;;;;;;1.73;0.40;;;52.10;22.60;;;;;;5032436;28;20087;-74
2021/05/11 16:00:37;;;;;;;1.40;0.60;;;51.50;22.50;;;;;;5046585;28;20136;-75
2021/05/11 16:03:05;;;;;;;1.27;0.40;;;50.30;22.90;;;;;;5011888;28;20570;-73
2021/05/11 16:05:37;;;;;;;1.35;0.47;;;49.50;23.00;;;;;;5051415;28;20507;-73
2021/05/11 16:08:12;;;;;;;1.27;0.30;;;48.20;23.30;;;;;;5016086;28;20037;-73
2021/05/11 16:10:40;;;;;;;1.70;0.40;;;48.30;23.40;;;;;;5031243;28;20079;-73
2021/05/11 16:13:07;;;;;;;6.60;0.68;;;47.60;23.50;;;;;;5046161;28;20514;-74
2021/05/11 16:15:35;;;;;;;0.80;0.40;;;47.20;23.60;;;;;;5048803;28;20755;-73
2021/05/11 16:18:04;;;;;;;0.60;0.40;;;47.00;23.80;;;;;;5027565;28;20528;-73
2021/05/11 16:20:32;;;;;;;1.10;0.60;;;46.90;24.10;;;;;;5040645;28;20048;-73
2021/05/11 16:23:00;;;;;;;1.10;0.35;;;45.60;24.40;;;;;;5028010;28;20103;-73
2021/05/11 16:25:27;;;;;;;0.65;0.30;;;45.70;24.60;;;;;;5050051;28;20053;-73
2021/05/11 16:27:54;;;;;;;2.55;0.57;;;45.30;24.40;;;;;;5032176;28;20095;-73
2021/05/11 16:30:22;;;;;;;1.35;0.50;;;43.40;24.60;;;;;;5028778;28;20055;-73
2021/05/11 16:32:49;;;;;;;1.23;0.35;;;41.80;25.30;;;;;;5008401;28;20550;-73
2021/05/11 16:35:17;;;;;;;2.33;0.30;;;40.40;26.00;;;;;;5011383;28;20053;-72
2021/05/11 16:37:44;;;;;;;2.15;0.60;;;39.50;26.80;;;;;;5027250;28;20041;-71
2021/05/11 16:40:13;;;;;;;2.58;0.60;;;38.70;27.70;;;;;;5026955;28;20420;-71
2021/05/11 16:42:41;;;;;;;2.17;0.50;;;37.40;28.10;;;;;;5013128;28;20045;-72
2021/05/11 16:45:11;;;;;;;1.27;0.43;;;36.50;29.30;;;;;;5045489;28;20468;-72
2021/05/11 16:47:55;;;;;;;1.00;0.57;;;35.30;29.90;;;;;;5027944;28;20057;-69
2021/05/11 16:50:25;;;;;;;1.17;0.50;;;34.50;31.60;;;;;;5022554;28;20045;-70
2021/05/11 16:52:54;;;;;;;1.52;0.60;;;34.00;31.70;;;;;;5030076;28;20400;-70
2021/05/11 16:55:23;;;;;;;2.85;1.02;;;33.60;32.30;;;;;;5038499;28;20058;-70
2021/05/11 16:57:53;;;;;;;1.73;0.50;;;33.00;33.10;;;;;;5018578;28;20045;-71
2021/05/11 17:00:21;;;;;;;32.83;1.58;;;32.50;34.40;;;;;;5009765;28;20057;-73
2021/05/11 17:02:50;;;;;;;1.60;0.60;;;32.00;35.00;;;;;;5042267;28;20049;-72
2021/05/11 17:05:21;;;;;;;0.82;0.40;;;31.40;35.70;;;;;;5029611;28;20069;-72